createdAt,value
2023-05-19T00:01:28.368Z,78.87
2023-05-19T00:03:59.137Z,78.96
2023-05-19T00:06:31.848Z,79.24
2023-05-19T00:09:05.830Z,79.35
2023-05-19T00:11:36.395Z,79.60
2023-05-19T00:14:07.524Z,79.70
2023-05-19T00:16:38.070Z,79.83
2023-05-19T00:19:06.834Z,79.70
2023-05-19T00:21:35.120Z,80.16
2023-05-19T00:24:03.714Z,80.22
2023-05-19T00:26:31.780Z,80.11
2023-05-19T00:29:06.896Z,80.33
2023-05-19T00:31:35.246Z,80.68
2023-05-19T00:34:03.338Z,80.40
2023-05-19T00:36:31.538Z,80.23
2023-05-19T00:38:59.570Z,80.43
2023-05-19T00:41:27.884Z,80.47
2023-05-19T00:43:56.113Z,80.72
2023-05-19T00:46:24.999Z,80.41
2023-05-19T00:48:53.343Z,80.83
2023-05-19T00:51:22.785Z,81.07
2023-05-19T00:53:52.285Z,80.99
2023-05-19T00:56:21.915Z,81.48
2023-05-19T00:58:52.029Z,81.38
2023-05-19T01:01:21.972Z,81.76
2023-05-19T01:03:51.633Z,81.53
2023-05-19T01:06:20.964Z,81.52
2023-05-19T01:08:51.819Z,81.58
2023-05-19T01:11:19.932Z,81.90
2023-05-19T01:13:49.167Z,81.47
2023-05-19T01:16:39.069Z,81.50
2023-05-19T01:19:35.257Z,81.35
2023-05-19T01:22:13.487Z,81.61
2023-05-19T01:25:03.122Z,81.62
2023-05-19T01:28:06.452Z,81.62
2023-05-19T01:30:40.852Z,81.45
2023-05-19T01:33:14.275Z,81.69
2023-05-19T01:35:44.339Z,81.65
2023-05-19T01:38:15.429Z,81.39
2023-05-19T01:40:45.910Z,82.01
2023-05-19T01:43:18.109Z,81.46
2023-05-19T01:45:47.629Z,81.35
2023-05-19T01:48:16.512Z,81.59
2023-05-19T01:50:46.881Z,81.57
2023-05-19T01:53:15.216Z,81.84
2023-05-19T01:55:49.738Z,81.71
2023-05-19T01:58:28.725Z,81.45
2023-05-19T02:01:20.456Z,81.04
2023-05-19T02:04:20.564Z,81.23
2023-05-19T02:06:51.621Z,81.28
2023-05-19T02:09:37.901Z,81.41
2023-05-19T02:12:17.444Z,81.18
2023-05-19T02:14:45.537Z,81.33
2023-05-19T02:17:16.894Z,81.51
2023-05-19T02:19:45.390Z,81.43
2023-05-19T02:22:13.546Z,81.49
2023-05-19T02:24:41.749Z,81.52
2023-05-19T02:27:09.913Z,81.50
2023-05-19T02:29:37.971Z,81.47
2023-05-19T02:32:07.768Z,81.50
2023-05-19T02:34:36.037Z,81.64
2023-05-19T02:37:07.948Z,81.69
2023-05-19T02:39:36.002Z,81.49
2023-05-19T02:42:04.321Z,81.84
2023-05-19T02:44:32.554Z,82.14
2023-05-19T02:47:01.010Z,81.87
2023-05-19T02:49:31.226Z,81.85
2023-05-19T02:51:59.235Z,82.44
2023-05-19T02:54:27.573Z,82.05
2023-05-19T02:56:55.749Z,82.08
2023-05-19T02:59:25.605Z,82.04
2023-05-19T03:02:01.123Z,82.08
2023-05-19T03:04:30.308Z,82.08
2023-05-19T03:06:58.585Z,82.02
2023-05-19T03:09:27.096Z,82.35
2023-05-19T03:11:55.234Z,82.18
2023-05-19T03:14:24.588Z,82.06
2023-05-19T03:16:53.073Z,81.93
2023-05-19T03:19:21.798Z,81.96
2023-05-19T03:21:49.876Z,81.81
2023-05-19T03:24:18.370Z,81.51
2023-05-19T03:26:46.739Z,81.61
2023-05-19T03:29:15.222Z,81.48
2023-05-19T03:31:44.017Z,81.69
2023-05-19T03:34:12.997Z,81.93
2023-05-19T03:36:41.524Z,81.72
2023-05-19T03:39:13.458Z,81.97
2023-05-19T03:41:41.912Z,82.23
2023-05-19T03:44:10.450Z,82.58
2023-05-19T03:46:38.733Z,82.54
2023-05-19T03:49:09.631Z,82.41
2023-05-19T03:51:37.733Z,82.50
2023-05-19T03:54:22.732Z,82.70
2023-05-19T03:56:52.480Z,82.78
2023-05-19T03:59:20.551Z,82.99
2023-05-19T04:01:48.867Z,82.91
2023-05-19T04:04:16.855Z,82.54
2023-05-19T04:06:46.756Z,82.11
2023-05-19T04:09:16.834Z,82.20
2023-05-19T04:11:44.837Z,82.18
2023-05-19T04:14:13.061Z,81.87
2023-05-19T04:16:41.805Z,81.44
2023-05-19T04:19:10.205Z,81.66
2023-05-19T04:21:38.527Z,81.58
2023-05-19T04:24:07.060Z,81.39
2023-05-19T04:26:36.239Z,81.69
2023-05-19T04:29:05.117Z,81.72
2023-05-19T04:31:35.580Z,81.80
2023-05-19T04:34:04.611Z,81.77
2023-05-19T04:36:34.185Z,81.59
2023-05-19T04:39:06.386Z,81.75
2023-05-19T04:41:35.116Z,81.60
2023-05-19T04:44:04.402Z,81.78
2023-05-19T04:46:32.975Z,81.72
2023-05-19T04:49:04.099Z,81.73
2023-05-19T04:51:32.405Z,81.71
2023-05-19T04:54:01.892Z,81.17
2023-05-19T04:56:30.224Z,81.26
2023-05-19T04:58:58.358Z,81.53
2023-05-19T05:01:27.665Z,80.89
2023-05-19T05:03:59.263Z,81.11
2023-05-19T05:06:28.802Z,80.94
2023-05-19T05:08:57.090Z,80.46
2023-05-19T05:11:26.912Z,80.03
2023-05-19T05:13:58.310Z,80.07
2023-05-19T05:16:28.492Z,80.21
2023-05-19T05:18:58.457Z,80.11
2023-05-19T05:21:28.270Z,80.27
2023-05-19T05:23:56.857Z,80.59
2023-05-19T05:26:30.971Z,80.52
2023-05-19T05:28:59.192Z,80.33
2023-05-19T05:31:27.446Z,79.95
2023-05-19T05:33:55.902Z,79.25
2023-05-19T05:36:25.957Z,77.39
2023-05-19T05:38:54.817Z,75.88
2023-05-19T05:41:24.266Z,74.46
2023-05-19T05:43:52.797Z,72.86
2023-05-19T05:46:21.159Z,73.14
2023-05-19T05:48:49.608Z,71.98
2023-05-19T05:51:18.268Z,70.06
2023-05-19T05:53:52.328Z,68.84
2023-05-19T05:56:22.274Z,68.58
2023-05-19T05:58:52.793Z,67.74
2023-05-19T06:01:22.038Z,67.22
2023-05-19T06:03:50.049Z,66.54
2023-05-19T06:06:21.516Z,65.85
2023-05-19T06:08:49.562Z,64.80
2023-05-19T06:11:19.663Z,64.24
2023-05-19T06:13:48.815Z,63.85
2023-05-19T06:16:24.486Z,63.05
2023-05-19T06:18:54.761Z,62.41
2023-05-19T06:21:23.058Z,61.98
2023-05-19T06:23:51.231Z,61.55
2023-05-19T06:26:19.611Z,61.47
2023-05-19T06:28:48.190Z,60.92
2023-05-19T06:31:16.686Z,60.67
2023-05-19T06:33:54.477Z,60.16
2023-05-19T06:36:22.932Z,60.52
2023-05-19T06:38:52.390Z,61.45
2023-05-19T06:41:22.172Z,60.84
2023-05-19T06:43:52.433Z,61.44
2023-05-19T06:46:23.559Z,61.97
2023-05-19T06:48:52.242Z,62.69
2023-05-19T06:51:22.830Z,63.35
2023-05-19T06:53:54.670Z,63.81
2023-05-19T06:56:23.508Z,63.97
2023-05-19T06:58:52.193Z,63.99
2023-05-19T07:01:21.541Z,63.65
2023-05-19T07:03:52.798Z,63.96
2023-05-19T07:06:22.173Z,64.26
2023-05-19T07:08:51.253Z,64.32
2023-05-19T07:11:20.034Z,64.39
2023-05-19T07:13:48.674Z,64.35
2023-05-19T07:16:21.329Z,64.43
2023-05-19T07:18:49.867Z,64.69
2023-05-19T07:21:18.344Z,64.41
2023-05-19T07:23:48.062Z,64.10
2023-05-19T07:26:16.075Z,63.98
2023-05-19T07:28:44.311Z,63.80
2023-05-19T07:31:12.338Z,63.36
2023-05-19T07:33:41.438Z,62.98
2023-05-19T07:36:09.646Z,61.96
2023-05-19T07:38:37.776Z,62.25
2023-05-19T07:41:05.995Z,62.41
2023-05-19T07:43:34.313Z,61.33
2023-05-19T07:46:02.575Z,61.38
2023-05-19T07:48:30.875Z,60.17
2023-05-19T07:50:59.311Z,60.49
2023-05-19T07:53:28.102Z,59.34
2023-05-19T07:55:58.370Z,59.57
2023-05-19T07:58:26.863Z,59.08
2023-05-19T08:00:58.589Z,59.89
2023-05-19T08:03:27.539Z,60.38
2023-05-19T08:05:56.645Z,59.99
2023-05-19T08:08:24.857Z,59.22
2023-05-19T08:10:53.018Z,59.53
2023-05-19T08:13:21.178Z,58.91
2023-05-19T08:15:49.487Z,58.95
2023-05-19T08:18:17.621Z,58.93
2023-05-19T08:20:46.636Z,58.92
2023-05-19T08:23:14.791Z,58.78
2023-05-19T08:25:43.163Z,58.82
2023-05-19T08:28:11.541Z,58.28
2023-05-19T08:30:39.817Z,58.38
2023-05-19T08:33:08.602Z,57.95
2023-05-19T08:35:36.696Z,57.02
2023-05-19T08:38:04.625Z,57.28
2023-05-19T08:40:35.077Z,57.18
2023-05-19T08:43:03.920Z,57.20
2023-05-19T08:45:34.739Z,56.71
2023-05-19T08:48:04.338Z,56.50
2023-05-19T08:50:39.554Z,56.71
2023-05-19T08:53:32.564Z,57.18
2023-05-19T08:56:11.534Z,56.60
2023-05-19T08:58:44.063Z,56.59
2023-05-19T09:01:18.128Z,56.03
2023-05-19T09:03:49.637Z,55.37
2023-05-19T09:06:18.252Z,54.90
2023-05-19T09:08:47.281Z,54.97
2023-05-19T09:11:15.449Z,55.53
2023-05-19T09:13:43.864Z,55.67
2023-05-19T09:16:12.385Z,55.78
2023-05-19T09:18:41.278Z,56.05
2023-05-19T09:21:11.360Z,55.99
2023-05-19T09:23:39.519Z,55.60
2023-05-19T09:26:08.315Z,55.02
2023-05-19T09:28:38.234Z,54.84
2023-05-19T09:31:08.668Z,55.34
2023-05-19T09:33:45.632Z,55.96
2023-05-19T09:36:14.390Z,56.46
2023-05-19T09:38:42.780Z,56.92
2023-05-19T09:41:11.021Z,55.23
2023-05-19T09:43:39.203Z,54.42
2023-05-19T09:46:10.104Z,55.60
2023-05-19T09:48:39.940Z,55.60
2023-05-19T09:51:11.119Z,55.48
2023-05-19T09:53:39.473Z,54.27
2023-05-19T09:56:08.856Z,54.33
2023-05-19T09:58:37.795Z,55.20
2023-05-19T10:01:07.682Z,56.12
2023-05-19T10:03:36.917Z,56.40
2023-05-19T10:06:07.532Z,54.94
2023-05-19T10:08:38.016Z,54.75
2023-05-19T10:11:06.687Z,54.94
2023-05-19T10:13:38.594Z,56.01
2023-05-19T10:16:08.716Z,55.50
2023-05-19T10:18:39.974Z,55.85
2023-05-19T10:21:09.854Z,56.06
2023-05-19T10:23:38.751Z,55.80
2023-05-19T10:26:08.809Z,56.25
2023-05-19T10:28:39.736Z,55.75
2023-05-19T10:31:11.620Z,56.00
2023-05-19T10:34:03.090Z,56.30
2023-05-19T10:36:38.088Z,56.50
2023-05-19T10:39:16.781Z,56.73
2023-05-19T10:41:54.034Z,55.96
2023-05-19T10:44:41.113Z,56.43
2023-05-19T10:47:12.146Z,56.71
2023-05-19T10:49:40.813Z,55.60
2023-05-19T10:52:26.231Z,55.77
2023-05-19T10:54:54.895Z,56.43
2023-05-19T10:57:28.432Z,56.43
2023-05-19T10:59:57.557Z,56.67
2023-05-19T11:02:43.436Z,55.63
2023-05-19T11:05:15.136Z,56.09
2023-05-19T11:07:45.137Z,56.18
2023-05-19T11:10:13.699Z,55.91
2023-05-19T11:12:45.078Z,56.11
2023-05-19T11:15:16.613Z,56.29
2023-05-19T11:17:49.078Z,55.68
2023-05-19T11:20:28.397Z,54.79
2023-05-19T11:23:06.489Z,54.99
2023-05-19T11:25:45.028Z,55.35
2023-05-19T11:28:16.623Z,55.42
2023-05-19T11:30:46.632Z,55.48
2023-05-19T11:33:15.011Z,55.89
2023-05-19T11:35:44.062Z,55.48
2023-05-19T11:38:13.476Z,55.19
2023-05-19T11:40:42.657Z,54.65
2023-05-19T11:43:11.056Z,55.22
2023-05-19T11:45:39.722Z,55.53
2023-05-19T11:48:16.029Z,55.40
2023-05-19T11:50:44.505Z,54.39
2023-05-19T11:53:16.647Z,54.40
2023-05-19T11:55:49.016Z,54.77
2023-05-19T11:58:17.606Z,55.09
2023-05-19T12:00:47.861Z,55.42
2023-05-19T12:03:21.409Z,54.79
2023-05-19T12:05:49.999Z,55.29
2023-05-19T12:08:19.195Z,54.63
2023-05-19T12:10:52.976Z,53.66
2023-05-19T12:13:23.117Z,54.02
2023-05-19T12:15:52.724Z,54.88
2023-05-19T12:18:21.581Z,55.95
2023-05-19T12:20:50.247Z,55.50
2023-05-19T12:23:18.582Z,56.33
2023-05-19T12:25:48.371Z,56.23
2023-05-19T12:28:17.394Z,56.95
2023-05-19T12:30:51.852Z,56.86
2023-05-19T12:33:20.193Z,55.76
2023-05-19T12:35:50.070Z,55.35
2023-05-19T12:38:20.119Z,55.56
2023-05-19T12:40:50.346Z,54.56
2023-05-19T12:43:25.284Z,54.31
2023-05-19T12:45:53.691Z,54.92
2023-05-19T12:48:22.998Z,54.23
2023-05-19T12:50:55.813Z,55.77
2023-05-19T12:53:27.748Z,55.46
2023-05-19T12:55:56.180Z,55.32
2023-05-19T12:58:24.557Z,56.05
2023-05-19T13:01:00.121Z,55.99
2023-05-19T13:03:28.556Z,56.01
2023-05-19T13:05:59.882Z,56.16
2023-05-19T13:08:27.910Z,57.21
2023-05-19T13:10:56.401Z,56.98
2023-05-19T13:13:24.610Z,56.18
2023-05-19T13:15:52.581Z,56.32
2023-05-19T13:18:20.653Z,56.00
2023-05-19T13:20:53.134Z,55.71
2023-05-19T13:23:21.381Z,56.29
2023-05-19T13:25:50.981Z,54.96
2023-05-19T13:28:19.370Z,54.67
2023-05-19T13:30:48.391Z,56.22
2023-05-19T13:33:16.612Z,56.16
2023-05-19T13:35:44.889Z,57.28
2023-05-19T13:38:13.374Z,57.49
2023-05-19T13:40:41.655Z,57.75
2023-05-19T13:43:09.860Z,57.15
2023-05-19T13:45:38.206Z,57.14
2023-05-19T13:48:07.564Z,57.48
2023-05-19T13:50:36.390Z,57.23
2023-05-19T13:53:04.884Z,57.14
2023-05-19T13:55:33.240Z,56.86
2023-05-19T13:58:01.581Z,56.92
2023-05-19T14:00:32.045Z,57.72
2023-05-19T14:03:00.727Z,58.89
2023-05-19T14:05:29.406Z,59.54
2023-05-19T14:07:58.250Z,60.39
2023-05-19T14:10:27.095Z,60.43
2023-05-19T14:13:28.921Z,60.27
2023-05-19T14:15:44.603Z,60.00
2023-05-19T14:18:12.768Z,59.96
2023-05-19T14:20:41.054Z,59.13
2023-05-19T14:23:09.196Z,59.01
2023-05-19T14:25:37.267Z,58.42
2023-05-19T14:28:05.623Z,57.77
2023-05-19T14:30:34.437Z,58.54
2023-05-19T14:33:02.926Z,58.13
2023-05-19T14:35:31.180Z,58.07
2023-05-19T14:37:59.266Z,58.45
2023-05-19T14:40:27.450Z,59.02
2023-05-19T14:42:55.783Z,57.73
2023-05-19T14:45:24.152Z,57.67
2023-05-19T14:47:52.923Z,58.42
2023-05-19T14:50:21.164Z,58.00
2023-05-19T14:52:49.308Z,58.40
2023-05-19T14:55:17.610Z,59.01
2023-05-19T14:57:46.604Z,57.17
2023-05-19T15:00:14.864Z,57.29
2023-05-19T15:02:43.723Z,57.74
2023-05-19T15:05:12.180Z,56.85
2023-05-19T15:07:40.248Z,56.76
2023-05-19T15:10:16.617Z,56.77
2023-05-19T15:12:44.631Z,56.87
2023-05-19T15:15:12.860Z,59.48
2023-05-19T15:17:41.192Z,59.81
2023-05-19T15:20:09.897Z,60.21
2023-05-19T15:22:38.100Z,60.30
2023-05-19T15:25:06.973Z,60.47
2023-05-19T15:27:38.713Z,60.25
2023-05-19T15:30:07.500Z,59.66
2023-05-19T15:32:35.674Z,59.57
2023-05-19T15:35:03.787Z,59.70
2023-05-19T15:37:31.903Z,58.70
2023-05-19T15:39:59.905Z,60.14
2023-05-19T15:42:28.355Z,60.46
2023-05-19T15:44:56.483Z,61.06
2023-05-19T15:47:24.441Z,60.68
2023-05-19T15:49:52.628Z,59.46
2023-05-19T15:52:21.050Z,59.26
2023-05-19T15:54:49.328Z,58.50
2023-05-19T15:57:17.446Z,57.01
2023-05-19T15:59:46.087Z,57.69
2023-05-19T16:02:15.097Z,58.31
2023-05-19T16:04:43.357Z,53.88
2023-05-19T16:07:11.561Z,41.66
2023-05-19T16:09:39.611Z,32.92
2023-05-19T16:12:08.228Z,33.09
2023-05-19T16:14:38.004Z,30.74
2023-05-19T16:17:11.458Z,29.59
2023-05-19T16:19:39.459Z,29.53
2023-05-19T16:22:07.666Z,30.70
2023-05-19T16:24:35.940Z,29.82
2023-05-19T16:27:05.117Z,30.17
2023-05-19T16:29:33.401Z,30.27
2023-05-19T16:32:01.859Z,30.58
2023-05-19T16:34:30.768Z,29.82
2023-05-19T16:36:59.145Z,29.42
2023-05-19T16:39:27.418Z,29.69
2023-05-19T16:41:55.596Z,28.29
2023-05-19T16:44:24.790Z,29.05
2023-05-19T16:46:52.807Z,28.86
2023-05-19T16:49:20.996Z,28.79
2023-05-19T16:51:49.105Z,28.63
2023-05-19T16:54:17.589Z,28.63
2023-05-19T16:56:46.262Z,28.05
2023-05-19T16:59:14.305Z,28.16
2023-05-19T17:01:42.420Z,27.65
2023-05-19T17:04:10.652Z,27.16
2023-05-19T17:06:38.765Z,27.45
2023-05-19T17:09:07.996Z,26.68
2023-05-19T17:11:36.387Z,27.08
2023-05-19T17:14:07.994Z,27.02
2023-05-19T17:16:36.951Z,27.38
2023-05-19T17:19:05.043Z,28.61
2023-05-19T17:21:33.958Z,30.80
2023-05-19T17:24:02.128Z,31.05
2023-05-19T17:26:30.227Z,31.42
2023-05-19T17:28:58.884Z,31.71
2023-05-19T17:31:26.939Z,31.48
2023-05-19T17:33:55.128Z,31.68
2023-05-19T17:36:23.408Z,31.71
2023-05-19T17:38:51.583Z,31.00
2023-05-19T17:41:19.668Z,31.03
2023-05-19T17:43:47.990Z,32.22
2023-05-19T17:46:16.546Z,32.26
2023-05-19T17:48:44.992Z,32.57
2023-05-19T17:51:13.173Z,33.09
2023-05-19T17:53:41.714Z,33.97
2023-05-19T17:56:12.182Z,34.91
2023-05-19T17:58:41.484Z,34.36
2023-05-19T18:01:10.038Z,34.87
2023-05-19T18:03:38.613Z,35.85
2023-05-19T18:06:07.655Z,34.85
2023-05-19T18:08:37.890Z,34.62
2023-05-19T18:11:06.243Z,34.42
2023-05-19T18:13:34.513Z,34.88
2023-05-19T18:16:02.606Z,36.07
2023-05-19T18:18:31.171Z,36.19
2023-05-19T18:20:59.126Z,37.04
2023-05-19T18:23:27.414Z,37.43
2023-05-19T18:25:55.552Z,37.79
2023-05-19T18:28:24.276Z,38.19
2023-05-19T18:31:06.488Z,38.26
2023-05-19T18:33:35.370Z,38.04
2023-05-19T18:36:03.761Z,38.21
2023-05-19T18:38:32.064Z,38.73
2023-05-19T18:41:00.871Z,39.93
2023-05-19T18:43:30.361Z,41.15
2023-05-19T18:45:58.996Z,41.64
2023-05-19T18:48:27.231Z,41.65
2023-05-19T18:50:55.555Z,41.71
2023-05-19T18:53:23.604Z,41.44
2023-05-19T18:55:51.729Z,41.47
2023-05-19T18:58:20.080Z,41.18
2023-05-19T19:00:48.276Z,41.29
2023-05-19T19:03:16.644Z,42.06
2023-05-19T19:05:45.419Z,43.08
2023-05-19T19:08:13.710Z,43.92
2023-05-19T19:10:42.616Z,44.84
2023-05-19T19:13:10.804Z,45.74
2023-05-19T19:15:39.759Z,46.68
2023-05-19T19:18:08.329Z,47.84
2023-05-19T19:20:36.525Z,48.70
2023-05-19T19:23:06.900Z,49.08
2023-05-19T19:25:35.426Z,50.46
2023-05-19T19:28:04.002Z,50.51
2023-05-19T19:30:32.481Z,51.76
2023-05-19T19:33:00.783Z,52.05
2023-05-19T19:35:28.870Z,52.77
2023-05-19T19:37:58.657Z,53.33
2023-05-19T19:40:26.930Z,54.03
2023-05-19T19:42:55.493Z,54.66
2023-05-19T19:45:24.092Z,55.33
2023-05-19T19:47:52.794Z,55.85
2023-05-19T19:50:21.972Z,56.21
2023-05-19T19:52:50.400Z,57.13
2023-05-19T19:55:18.654Z,57.85
2023-05-19T19:57:49.605Z,58.58
2023-05-19T20:00:18.790Z,59.27
2023-05-19T20:03:03.846Z,59.77
2023-05-19T20:05:34.873Z,60.22
2023-05-19T20:08:03.070Z,60.79
2023-05-19T20:10:31.466Z,60.66
2023-05-19T20:12:59.918Z,60.95
2023-05-19T20:15:28.288Z,61.34
2023-05-19T20:17:56.571Z,61.81
2023-05-19T20:20:24.833Z,62.32
2023-05-19T20:22:52.832Z,62.92
2023-05-19T20:25:20.996Z,63.29
2023-05-19T20:27:49.581Z,64.11
2023-05-19T20:30:17.782Z,64.23
2023-05-19T20:32:48.877Z,64.18
2023-05-19T20:35:17.216Z,64.21
2023-05-19T20:37:45.260Z,64.21
2023-05-19T20:40:13.857Z,64.77
2023-05-19T20:42:42.413Z,65.11
2023-05-19T20:45:10.722Z,64.82
2023-05-19T20:47:38.988Z,65.43
2023-05-19T20:50:07.785Z,65.48
2023-05-19T20:52:36.089Z,65.41
2023-05-19T20:55:04.413Z,65.62
2023-05-19T20:57:33.230Z,65.63
2023-05-19T21:00:01.571Z,66.03
2023-05-19T21:02:29.853Z,66.10
2023-05-19T21:04:58.139Z,66.66
2023-05-19T21:07:26.537Z,66.79
2023-05-19T21:09:54.747Z,66.98
2023-05-19T21:12:25.451Z,67.11
2023-05-19T21:14:53.488Z,67.22
2023-05-19T21:17:21.683Z,67.51
2023-05-19T21:19:50.661Z,67.61
2023-05-19T21:22:19.032Z,67.38
2023-05-19T21:24:47.304Z,67.56
2023-05-19T21:27:15.406Z,67.55
2023-05-19T21:29:43.655Z,67.86
2023-05-19T21:32:11.934Z,67.90
2023-05-19T21:34:40.003Z,68.42
2023-05-19T21:37:08.081Z,68.63
2023-05-19T21:39:36.169Z,68.66
2023-05-19T21:42:04.839Z,69.14
2023-05-19T21:44:32.932Z,69.02
2023-05-19T21:47:01.305Z,69.13
2023-05-19T21:49:29.478Z,69.74
2023-05-19T21:51:57.752Z,69.84
2023-05-19T21:54:25.900Z,69.58
2023-05-19T21:56:53.865Z,69.89
2023-05-19T21:59:24.911Z,69.84
2023-05-19T22:01:53.284Z,70.01
2023-05-19T22:04:22.634Z,69.96
2023-05-19T22:06:51.300Z,69.92
2023-05-19T22:09:19.391Z,70.41
2023-05-19T22:11:47.935Z,70.39
2023-05-19T22:14:15.972Z,70.35
2023-05-19T22:16:44.999Z,70.73
2023-05-19T22:19:14.771Z,70.64
2023-05-19T22:21:43.049Z,70.75
2023-05-19T22:24:11.264Z,71.23
2023-05-19T22:26:42.806Z,71.40
2023-05-19T22:29:15.249Z,71.44
2023-05-19T22:31:43.512Z,72.05
2023-05-19T22:34:12.847Z,72.29
2023-05-19T22:36:44.104Z,72.23
2023-05-19T22:39:15.156Z,72.53
2023-05-19T22:41:43.385Z,72.85
2023-05-19T22:44:15.700Z,72.92
2023-05-19T22:46:44.899Z,73.10
2023-05-19T22:49:13.276Z,72.74
2023-05-19T22:51:41.679Z,72.74
2023-05-19T22:54:10.746Z,73.02
2023-05-19T22:56:38.725Z,72.92
2023-05-19T22:59:06.644Z,72.97
2023-05-19T23:01:34.870Z,73.13
2023-05-19T23:04:04.013Z,73.28
2023-05-19T23:06:32.400Z,73.17
2023-05-19T23:09:04.472Z,73.17
2023-05-19T23:11:32.518Z,73.36
2023-05-19T23:14:00.925Z,73.44
2023-05-19T23:16:29.274Z,73.53
2023-05-19T23:18:57.596Z,73.87
2023-05-19T23:21:25.882Z,74.04
2023-05-19T23:23:54.203Z,74.24
2023-05-19T23:26:22.468Z,74.24
2023-05-19T23:28:50.715Z,74.36
2023-05-19T23:31:18.743Z,74.38
2023-05-19T23:33:46.974Z,74.76
2023-05-19T23:36:16.164Z,74.94
2023-05-19T23:38:44.455Z,75.04
2023-05-19T23:41:12.963Z,75.42
2023-05-19T23:43:41.005Z,75.31
2023-05-19T23:46:09.572Z,75.29
2023-05-19T23:48:37.960Z,75.48
2023-05-19T23:51:06.105Z,75.53
2023-05-19T23:53:34.305Z,75.46
2023-05-19T23:56:02.555Z,75.78
2023-05-19T23:58:30.830Z,76.10
